createdAt,value
2022-08-02T00:01:03.945Z,99872.63
2022-08-02T00:03:32.690Z,99866.16
2022-08-02T00:06:03.105Z,99864.94
2022-08-02T00:08:31.874Z,99863.63
2022-08-02T00:11:00.282Z,99864.00
2022-08-02T00:13:28.707Z,99866.31
2022-08-02T00:15:56.849Z,99863.31
2022-08-02T00:18:25.280Z,99860.69
2022-08-02T00:20:54.047Z,99869.88
2022-08-02T00:23:23.788Z,99869.00
2022-08-02T00:25:55.053Z,99864.16
2022-08-02T00:28:27.795Z,99873.34
2022-08-02T00:30:57.114Z,99870.81
2022-08-02T00:34:05.211Z,99871.06
2022-08-02T00:36:14.513Z,99871.88
2022-08-02T00:38:44.526Z,99867.78
2022-08-02T00:41:13.935Z,99866.44
2022-08-02T00:43:42.582Z,99867.28
2022-08-02T00:46:11.094Z,99868.38
2022-08-02T00:48:41.442Z,99861.50
2022-08-02T00:51:12.003Z,99860.53
2022-08-02T00:53:40.335Z,99862.38
2022-08-02T00:56:10.244Z,99858.00
2022-08-02T00:58:39.117Z,99853.78
2022-08-02T01:01:08.455Z,99863.34
2022-08-02T01:03:36.846Z,99874.94
2022-08-02T01:06:13.399Z,99872.03
2022-08-02T01:08:41.897Z,99870.09
2022-08-02T01:11:13.866Z,99870.81
2022-08-02T01:13:42.501Z,99866.22
2022-08-02T01:16:13.208Z,99882.03
2022-08-02T01:18:43.237Z,99876.97
2022-08-02T01:21:21.319Z,99884.47
2022-08-02T01:23:56.403Z,99879.41
2022-08-02T01:26:38.772Z,99885.81
2022-08-02T01:29:11.681Z,99886.00
2022-08-02T01:31:42.145Z,99889.63
2022-08-02T01:34:13.369Z,99890.84
2022-08-02T01:36:44.234Z,99890.38
2022-08-02T01:39:26.820Z,99891.44
2022-08-02T01:42:02.058Z,99892.78
2022-08-02T01:44:33.215Z,99893.25
2022-08-02T01:47:05.585Z,99892.66
2022-08-02T01:49:34.718Z,99887.59
2022-08-02T01:52:21.950Z,99889.66
2022-08-02T01:54:52.204Z,99898.94
2022-08-02T01:57:22.902Z,99902.41
2022-08-02T01:59:52.863Z,99902.88
2022-08-02T02:02:22.328Z,99900.09
2022-08-02T02:04:51.501Z,99900.47
2022-08-02T02:07:21.414Z,99899.97
2022-08-02T02:09:51.037Z,99900.56
2022-08-02T02:12:20.558Z,99899.00
2022-08-02T02:14:51.705Z,99898.13
2022-08-02T02:17:52.667Z,99892.72
2022-08-02T02:20:15.158Z,99898.63
2022-08-02T02:22:43.455Z,99899.19
2022-08-02T02:25:12.872Z,99899.31
2022-08-02T02:27:46.846Z,99902.06
2022-08-02T02:30:15.762Z,99893.19
2022-08-02T02:32:47.016Z,99899.44
2022-08-02T02:35:17.765Z,99892.72
2022-08-02T02:37:46.940Z,99898.63
2022-08-02T02:40:16.709Z,99902.84
2022-08-02T02:42:49.223Z,99894.53
2022-08-02T02:45:19.571Z,99893.09
2022-08-02T02:47:50.691Z,99890.31
2022-08-02T02:50:19.419Z,99892.72
2022-08-02T02:52:48.697Z,99888.75
2022-08-02T02:55:18.687Z,99893.09
2022-08-02T02:57:47.685Z,99885.41
2022-08-02T03:00:16.898Z,99894.41
2022-08-02T03:02:46.341Z,99891.53
2022-08-02T03:05:18.419Z,99891.53
2022-08-02T03:07:46.704Z,99893.47
2022-08-02T03:10:14.829Z,99891.53
2022-08-02T03:12:46.247Z,99893.00
2022-08-02T03:15:15.374Z,99897.22
2022-08-02T03:17:44.570Z,99899.97
2022-08-02T03:20:14.328Z,99899.97
2022-08-02T03:22:44.861Z,99899.75
2022-08-02T03:25:14.240Z,99903.38
2022-08-02T03:27:43.330Z,99898.78
2022-08-02T03:30:12.813Z,99902.41
2022-08-02T03:32:43.029Z,99898.06
2022-08-02T03:35:12.522Z,99897.44
2022-08-02T03:37:41.621Z,99908.69
2022-08-02T03:40:12.807Z,99910.84
2022-08-02T03:42:42.555Z,99911.34
2022-08-02T03:45:14.001Z,99912.06
2022-08-02T03:47:43.227Z,99912.69
2022-08-02T03:50:12.971Z,99915.72
2022-08-02T03:52:43.126Z,99923.31
2022-08-02T03:55:14.084Z,99924.16
2022-08-02T03:57:42.916Z,99921.38
2022-08-02T04:00:13.294Z,99923.06
2022-08-02T04:02:43.109Z,99921.25
2022-08-02T04:05:11.700Z,99925.47
2022-08-02T04:08:33.817Z,99923.44
2022-08-02T04:10:30.354Z,99929.72
2022-08-02T04:12:59.360Z,99939.84
2022-08-02T04:15:28.287Z,99944.69
2022-08-02T04:17:58.042Z,99943.38
2022-08-02T04:20:29.658Z,99944.25
2022-08-02T04:23:00.357Z,99943.25
2022-08-02T04:25:34.317Z,99946.78
2022-08-02T04:28:17.123Z,99949.91
2022-08-02T04:30:47.942Z,99951.00
2022-08-02T04:33:16.915Z,99958.00
2022-08-02T04:35:45.715Z,99962.34
2022-08-02T04:38:15.907Z,99963.91
2022-08-02T04:40:52.485Z,99962.72
2022-08-02T04:43:23.274Z,99971.03
2022-08-02T04:45:53.789Z,99970.81
2022-08-02T04:48:22.602Z,99968.63
2022-08-02T04:50:51.734Z,99970.31
2022-08-02T04:53:20.717Z,99969.09
2022-08-02T04:55:49.513Z,99963.75
2022-08-02T04:58:39.278Z,99969.56
2022-08-02T05:01:07.711Z,99968.38
2022-08-02T05:03:36.285Z,99974.66
2022-08-02T05:06:04.438Z,99969.19
2022-08-02T05:08:53.249Z,99980.56
2022-08-02T05:11:30.003Z,99972.47
2022-08-02T05:14:04.815Z,99973.28
2022-08-02T05:16:35.463Z,99972.47
2022-08-02T05:19:04.476Z,99968.84
2022-08-02T05:21:32.939Z,99977.66
2022-08-02T05:24:01.550Z,99983.81
2022-08-02T05:26:30.267Z,99989.38
2022-08-02T05:28:58.723Z,99992.16
2022-08-02T05:31:27.167Z,99995.66
2022-08-02T05:33:56.929Z,99992.88
2022-08-02T05:36:25.451Z,100000.50
2022-08-02T05:38:59.722Z,99993.81
2022-08-02T05:41:33.679Z,100001.44
2022-08-02T05:44:01.923Z,100002.63
2022-08-02T05:46:30.335Z,100007.66
2022-08-02T05:49:01.663Z,100012.03
2022-08-02T05:51:32.481Z,100018.28
2022-08-02T05:54:04.451Z,100017.22
2022-08-02T05:56:34.561Z,100025.78
2022-08-02T05:59:05.544Z,100017.34
2022-08-02T06:01:37.338Z,100020.38
2022-08-02T06:04:09.175Z,100028.81
2022-08-02T06:06:38.638Z,100031.19
2022-08-02T06:09:10.611Z,100025.34
2022-08-02T06:11:41.450Z,100031.16
2022-08-02T06:14:33.023Z,100026.69
2022-08-02T06:17:02.516Z,100033.19
2022-08-02T06:19:46.919Z,100035.56
2022-08-02T06:22:42.029Z,100036.00
2022-08-02T06:25:11.698Z,100028.16
2022-08-02T06:27:59.969Z,100031.63
2022-08-02T06:30:29.658Z,100034.13
2022-08-02T06:32:58.632Z,100049.31
2022-08-02T06:35:34.925Z,100047.34
2022-08-02T06:38:04.287Z,100048.22
2022-08-02T06:40:37.393Z,100055.00
2022-08-02T06:43:13.507Z,100051.94
2022-08-02T06:45:42.762Z,100060.69
2022-08-02T06:48:11.487Z,100071.97
2022-08-02T06:50:42.348Z,100072.94
2022-08-02T06:53:11.830Z,100070.63
2022-08-02T06:55:43.647Z,100076.41
2022-08-02T06:58:13.129Z,100074.69
2022-08-02T07:00:42.138Z,100080.22
2022-08-02T07:03:10.982Z,100081.03
2022-08-02T07:05:39.298Z,100080.47
2022-08-02T07:08:09.254Z,100082.44
2022-08-02T07:10:37.545Z,100079.94
2022-08-02T07:13:06.176Z,100081.09
2022-08-02T07:15:38.410Z,100077.75
2022-08-02T07:18:07.245Z,100086.25
2022-08-02T07:20:35.892Z,100085.94
2022-08-02T07:23:04.234Z,100097.22
2022-08-02T07:26:02.581Z,100085.84
2022-08-02T07:28:24.724Z,100082.91
2022-08-02T07:30:53.908Z,100081.50
2022-08-02T07:33:38.833Z,100079.97
2022-08-02T07:36:22.470Z,100087.91
2022-08-02T07:38:51.439Z,100082.28
2022-08-02T07:41:23.635Z,100087.91
2022-08-02T07:43:52.060Z,100082.28
2022-08-02T07:46:21.025Z,100077.47
2022-08-02T07:48:50.070Z,100081.56
2022-08-02T07:51:19.050Z,100077.16
2022-08-02T07:53:51.214Z,100081.78
2022-08-02T07:56:20.415Z,100084.41
2022-08-02T07:58:50.483Z,100082.97
2022-08-02T08:01:21.576Z,100086.94
2022-08-02T08:03:50.844Z,100082.47
2022-08-02T08:06:19.544Z,100076.56
2022-08-02T08:08:57.852Z,100084.50
2022-08-02T08:11:26.642Z,100082.56
2022-08-02T08:13:56.384Z,100090.44
2022-08-02T08:16:26.719Z,100088.34
2022-08-02T08:18:55.495Z,100092.19
2022-08-02T08:21:24.337Z,100081.66
2022-08-02T08:23:53.015Z,100093.44
2022-08-02T08:26:21.502Z,100089.38
2022-08-02T08:28:49.819Z,100097.56
2022-08-02T08:31:20.826Z,100091.50
2022-08-02T08:33:49.548Z,100091.63
2022-08-02T08:36:18.047Z,100105.13
2022-08-02T08:38:46.651Z,100101.56
2022-08-02T08:41:16.947Z,100103.84
2022-08-02T08:43:48.042Z,100115.06
2022-08-02T08:46:25.796Z,100110.38
2022-08-02T08:49:00.532Z,100103.94
2022-08-02T08:51:32.219Z,100106.56
2022-08-02T08:54:04.023Z,100117.56
2022-08-02T08:56:34.241Z,100122.63
2022-08-02T08:59:03.405Z,100120.13
2022-08-02T09:01:49.369Z,100121.69
2022-08-02T09:04:19.397Z,100123.69
2022-08-02T09:06:48.057Z,100128.44
2022-08-02T09:09:16.641Z,100132.25
2022-08-02T09:11:44.798Z,100126.25
2022-08-02T09:14:26.599Z,100135.19
2022-08-02T09:17:07.287Z,100129.88
2022-08-02T09:19:37.173Z,100127.06
2022-08-02T09:22:08.080Z,100134.13
2022-08-02T09:24:43.589Z,100136.50
2022-08-02T09:27:12.982Z,100132.22
2022-08-02T09:30:05.994Z,100137.31
2022-08-02T09:32:34.811Z,100135.31
2022-08-02T09:35:03.355Z,100132.16
2022-08-02T09:37:32.512Z,100137.38
2022-08-02T09:40:02.996Z,100130.69
2022-08-02T09:42:31.537Z,100138.94
2022-08-02T09:45:01.766Z,100140.97
2022-08-02T09:47:31.467Z,100133.31
2022-08-02T09:50:01.572Z,100137.19
2022-08-02T09:52:42.926Z,100137.81
2022-08-02T09:55:13.633Z,100133.81
2022-08-02T09:57:42.090Z,100134.84
2022-08-02T10:00:23.269Z,100136.53
2022-08-02T10:03:14.849Z,100140.53
2022-08-02T10:05:55.933Z,100133.78
2022-08-02T10:08:33.681Z,100127.97
2022-08-02T10:11:03.945Z,100127.22
2022-08-02T10:13:36.143Z,100122.03
2022-08-02T10:16:06.491Z,100126.72
2022-08-02T10:18:39.259Z,100129.16
2022-08-02T10:21:13.371Z,100114.84
2022-08-02T10:23:44.110Z,100117.78
2022-08-02T10:26:16.023Z,100107.22
2022-08-02T10:28:47.235Z,100119.34
2022-08-02T10:31:19.650Z,100114.22
2022-08-02T10:33:50.428Z,100114.31
2022-08-02T10:36:21.564Z,100115.94
2022-08-02T10:38:51.484Z,100115.84
2022-08-02T10:41:34.924Z,100115.41
2022-08-02T10:44:03.513Z,100109.50
2022-08-02T10:46:33.670Z,100111.25
2022-08-02T10:49:37.547Z,100110.50
2022-08-02T10:52:06.804Z,100109.34
2022-08-02T10:54:36.565Z,100104.22
2022-08-02T10:57:05.799Z,100111.06
2022-08-02T10:59:36.306Z,100118.16
2022-08-02T11:02:06.178Z,100122.25
2022-08-02T11:04:54.506Z,100115.53
2022-08-02T11:07:33.325Z,100110.25
2022-08-02T11:10:21.825Z,100114.44
2022-08-02T11:13:00.186Z,100116.75
2022-08-02T11:15:28.892Z,100117.19
2022-08-02T11:17:59.158Z,100116.72
2022-08-02T11:20:28.501Z,100117.44
2022-08-02T11:23:18.761Z,100114.56
2022-08-02T11:26:03.710Z,100113.47
2022-08-02T11:28:39.571Z,100107.75
2022-08-02T11:31:07.929Z,100109.13
2022-08-02T11:33:37.364Z,100111.66
2022-08-02T11:36:07.266Z,100112.22
2022-08-02T11:38:37.118Z,100110.53
2022-08-02T11:41:06.093Z,100108.50
2022-08-02T11:43:38.809Z,100111.03
2022-08-02T11:46:13.688Z,100108.50
2022-08-02T11:48:42.504Z,100113.91
2022-08-02T11:51:14.531Z,100111.03
2022-08-02T11:53:49.508Z,100114.28
2022-08-02T11:56:24.878Z,100115.63
2022-08-02T11:59:04.200Z,100107.16
2022-08-02T12:01:44.882Z,100113.13
2022-08-02T12:04:17.320Z,100117.19
2022-08-02T12:06:56.232Z,100116.47
2022-08-02T12:09:27.597Z,100111.34
2022-08-02T12:11:56.490Z,100109.34
2022-08-02T12:14:26.884Z,100111.31
2022-08-02T12:17:12.721Z,100112.16
2022-08-02T12:19:43.029Z,100118.88
2022-08-02T12:22:15.094Z,100111.63
2022-08-02T12:24:47.461Z,100106.44
2022-08-02T12:27:37.976Z,100103.31
2022-08-02T12:30:07.940Z,100105.47
2022-08-02T12:32:36.768Z,100105.88
2022-08-02T12:35:06.927Z,100104.66
2022-08-02T12:37:35.756Z,100111.88
2022-08-02T12:40:25.533Z,100106.03
2022-08-02T12:42:55.864Z,100114.50
2022-08-02T12:45:24.758Z,100112.59
2022-08-02T12:47:54.405Z,100110.78
2022-08-02T12:50:26.160Z,100109.25
2022-08-02T12:53:04.758Z,100109.03
2022-08-02T12:55:59.211Z,100108.91
2022-08-02T12:58:29.579Z,100114.88
2022-08-02T13:00:59.962Z,100108.66
2022-08-02T13:04:11.577Z,100112.88
2022-08-02T13:06:43.293Z,100110.34
2022-08-02T13:09:13.959Z,100116.03
2022-08-02T13:11:46.817Z,100119.38
2022-08-02T13:14:16.093Z,100113.50
2022-08-02T13:16:46.258Z,100117.34
2022-08-02T13:19:15.842Z,100114.19
2022-08-02T13:22:01.147Z,100115.66
2022-08-02T13:24:38.156Z,100122.88
2022-08-02T13:27:11.898Z,100126.06
2022-08-02T13:29:40.220Z,100121.84
2022-08-02T13:32:08.871Z,100116.34
2022-08-02T13:34:37.919Z,100122.34
2022-08-02T13:37:07.705Z,100117.72
2022-08-02T13:39:36.039Z,100118.78
2022-08-02T13:42:05.877Z,100127.75
2022-08-02T13:44:36.559Z,100121.41
2022-08-02T13:47:05.830Z,100119.91
2022-08-02T13:49:51.483Z,100115.00
2022-08-02T13:52:23.362Z,100119.06
2022-08-02T13:54:52.320Z,100122.09
2022-08-02T13:57:21.081Z,100119.41
2022-08-02T13:59:56.788Z,100116.56
2022-08-02T14:02:28.275Z,100120.44
2022-08-02T14:04:57.106Z,100111.84
2022-08-02T14:07:25.763Z,100116.69
2022-08-02T14:09:54.287Z,100120.03
2022-08-02T14:12:23.153Z,100120.72
2022-08-02T14:14:53.029Z,100121.25
2022-08-02T14:17:21.353Z,100118.19
2022-08-02T14:19:51.055Z,100114.34
2022-08-02T14:22:19.200Z,100121.06
2022-08-02T14:24:47.922Z,100118.34
2022-08-02T14:27:16.844Z,100115.53
2022-08-02T14:29:45.249Z,100111.66
2022-08-02T14:32:15.368Z,100119.22
2022-08-02T14:34:44.477Z,100116.03
2022-08-02T14:37:12.785Z,100112.66
2022-08-02T14:39:43.269Z,100115.34
2022-08-02T14:42:29.343Z,100112.66
2022-08-02T14:44:57.576Z,100116.03
2022-08-02T14:47:27.669Z,100109.28
2022-08-02T14:49:56.474Z,100117.84
2022-08-02T14:52:24.758Z,100108.97
2022-08-02T14:54:53.089Z,100116.03
2022-08-02T14:57:22.019Z,100117.69
2022-08-02T14:59:52.326Z,100116.00
2022-08-02T15:02:24.142Z,100109.28
2022-08-02T15:04:54.263Z,100118.88
2022-08-02T15:07:23.765Z,100116.63
2022-08-02T15:09:52.011Z,100116.13
2022-08-02T15:12:20.671Z,100113.59
2022-08-02T15:14:48.865Z,100117.78
2022-08-02T15:17:17.346Z,100106.84
2022-08-02T15:19:57.609Z,100113.56
2022-08-02T15:22:31.094Z,100109.03
2022-08-02T15:25:00.492Z,100108.84
2022-08-02T15:27:28.814Z,100114.38
2022-08-02T15:30:00.936Z,100117.91
2022-08-02T15:32:29.496Z,100117.06
2022-08-02T15:34:57.676Z,100108.31
2022-08-02T15:37:26.237Z,100110.31
2022-08-02T15:40:00.954Z,100111.69
2022-08-02T15:42:30.668Z,100115.50
2022-08-02T15:44:59.667Z,100117.22
2022-08-02T15:47:28.761Z,100123.09
2022-08-02T15:49:58.423Z,100115.69
2022-08-02T15:52:27.198Z,100119.91
2022-08-02T15:54:55.575Z,100112.69
2022-08-02T15:57:25.378Z,100115.38
2022-08-02T15:59:54.457Z,100117.91
2022-08-02T16:02:22.999Z,100119.09
2022-08-02T16:04:51.467Z,100117.44
2022-08-02T16:07:20.546Z,100122.31
2022-08-02T16:09:49.039Z,100126.75
2022-08-02T16:12:17.621Z,100128.03
2022-08-02T16:14:47.792Z,100127.38
2022-08-02T16:17:48.976Z,100127.38
2022-08-02T16:20:05.564Z,100129.91
2022-08-02T16:22:34.225Z,100126.53
2022-08-02T16:25:02.279Z,100129.91
2022-08-02T16:27:30.559Z,100126.53
2022-08-02T16:30:00.466Z,100129.53
2022-08-02T16:32:29.067Z,100127.16
2022-08-02T16:35:08.192Z,100131.38
2022-08-02T16:37:51.781Z,100128.34
2022-08-02T16:40:21.612Z,100138.72
2022-08-02T16:42:50.684Z,100144.75
2022-08-02T16:45:22.569Z,100138.88
2022-08-02T16:47:56.414Z,100150.78
2022-08-02T16:50:28.752Z,100157.16
2022-08-02T16:52:57.976Z,100148.41
2022-08-02T16:55:29.045Z,100150.44
2022-08-02T16:57:58.917Z,100147.69
2022-08-02T17:00:29.136Z,100156.00
2022-08-02T17:02:59.593Z,100154.97
2022-08-02T17:05:55.871Z,100148.56
2022-08-02T17:08:32.212Z,100145.47
2022-08-02T17:11:03.362Z,100148.81
2022-08-02T17:13:32.343Z,100149.13
2022-08-02T17:16:25.854Z,100151.22
2022-08-02T17:18:54.099Z,100155.03
2022-08-02T17:21:22.616Z,100152.28
2022-08-02T17:24:06.118Z,100150.81
2022-08-02T17:26:37.546Z,100155.72
2022-08-02T17:29:15.597Z,100157.66
2022-08-02T17:32:12.532Z,100150.53
2022-08-02T17:34:37.195Z,100148.09
2022-08-02T17:37:06.447Z,100149.69
2022-08-02T17:39:43.231Z,100154.97
2022-08-02T17:42:19.546Z,100152.19
2022-08-02T17:47:42.109Z,100154.13
2022-08-02T17:50:12.560Z,100145.47
2022-08-02T17:55:31.222Z,100152.59
2022-08-02T18:00:47.629Z,100162.09
2022-08-02T18:03:19.674Z,100158.78
2022-08-02T18:05:55.210Z,100161.63
2022-08-02T18:08:24.123Z,100146.72
2022-08-02T18:10:53.060Z,100161.69
2022-08-02T18:13:21.272Z,100163.09
2022-08-02T18:15:49.903Z,100162.81
2022-08-02T18:18:29.185Z,100166.06
2022-08-02T18:21:14.498Z,100163.66
2022-08-02T18:23:48.689Z,100174.91
2022-08-02T18:26:18.107Z,100165.06
2022-08-02T18:28:49.662Z,100165.91
2022-08-02T18:31:22.573Z,100172.38
2022-08-02T18:34:00.062Z,100169.72
2022-08-02T18:36:47.419Z,100172.09
2022-08-02T18:39:15.961Z,100182.78
2022-08-02T18:41:45.259Z,100185.28
2022-08-02T18:44:16.789Z,100187.22
2022-08-02T18:46:49.381Z,100187.47
2022-08-02T18:49:20.953Z,100191.63
2022-08-02T18:51:49.427Z,100192.44
2022-08-02T18:54:26.735Z,100181.19
2022-08-02T18:56:59.510Z,100195.66
2022-08-02T18:59:28.055Z,100204.22
2022-08-02T19:02:05.158Z,100192.13
2022-08-02T19:04:34.825Z,100204.75
2022-08-02T19:07:07.543Z,100201.09
2022-08-02T19:09:36.614Z,100201.38
2022-08-02T19:12:09.511Z,100210.06
2022-08-02T19:14:38.797Z,100214.09
2022-08-02T19:17:15.957Z,100211.66
2022-08-02T19:19:56.702Z,100209.28
2022-08-02T19:22:25.537Z,100208.84
2022-08-02T19:24:59.986Z,100201.34
2022-08-02T19:27:32.683Z,100198.66
2022-08-02T19:30:02.532Z,100210.19
2022-08-02T19:32:39.624Z,100204.06
2022-08-02T19:35:19.726Z,100205.09
2022-08-02T19:37:59.585Z,100197.16
2022-08-02T19:40:28.984Z,100201.69
2022-08-02T19:44:23.831Z,100196.16
2022-08-02T19:45:51.183Z,100202.97
2022-08-02T19:48:24.036Z,100194.50
2022-08-02T19:51:00.507Z,100203.84
2022-08-02T19:53:46.711Z,100206.03
2022-08-02T19:56:20.903Z,100201.66
2022-08-02T19:58:51.568Z,100201.06
2022-08-02T20:01:25.310Z,100203.50
2022-08-02T20:03:57.117Z,100201.22
2022-08-02T20:06:30.009Z,100200.75
2022-08-02T20:09:01.141Z,100207.41
2022-08-02T20:11:34.609Z,100197.84
2022-08-02T20:14:04.074Z,100204.28
2022-08-02T20:16:32.945Z,100214.22
2022-08-02T20:19:01.763Z,100209.97
2022-08-02T20:21:36.244Z,100214.56
2022-08-02T20:24:07.008Z,100203.31
2022-08-02T20:26:38.218Z,100208.88
2022-08-02T20:29:07.694Z,100210.56
2022-08-02T20:31:36.456Z,100209.38
2022-08-02T20:36:55.949Z,100202.00
2022-08-02T20:39:42.875Z,100209.63
2022-08-02T20:42:23.921Z,100210.84
2022-08-02T20:44:54.747Z,100210.13
2022-08-02T20:47:27.476Z,100206.00
2022-08-02T20:50:14.244Z,100209.13
2022-08-02T20:52:47.823Z,100206.69
2022-08-02T20:55:17.130Z,100206.34
2022-08-02T20:57:59.902Z,100201.63
2022-08-02T21:00:29.066Z,100195.81
2022-08-02T21:02:57.259Z,100192.19
2022-08-02T21:08:15.589Z,100210.31
2022-08-02T21:10:51.725Z,100195.66
2022-08-02T21:13:24.238Z,100201.31
2022-08-02T21:18:43.046Z,100202.28
2022-08-02T21:21:11.500Z,100201.47
2022-08-02T21:23:49.033Z,100202.53
2022-08-02T21:26:28.406Z,100206.41
2022-08-02T21:29:00.781Z,100201.31
2022-08-02T21:31:32.069Z,100200.59
2022-08-02T21:34:01.944Z,100209.50
2022-08-02T21:36:32.569Z,100210.47
2022-08-02T21:39:04.997Z,100209.66
2022-08-02T21:41:39.374Z,100204.56
2022-08-02T21:44:15.864Z,100208.06
2022-08-02T21:46:49.229Z,100211.06
2022-08-02T21:49:18.434Z,100214.81
2022-08-02T21:51:49.575Z,100207.31
2022-08-02T21:54:21.666Z,100214.03
2022-08-02T21:56:52.161Z,100210.16
2022-08-02T21:59:25.622Z,100216.66
2022-08-02T22:04:47.816Z,100215.38
2022-08-02T22:07:17.238Z,100223.22
2022-08-02T22:09:47.029Z,100220.78
2022-08-02T22:12:18.359Z,100212.22
2022-08-02T22:14:54.088Z,100221.38
2022-08-02T22:17:51.574Z,100220.88
2022-08-02T22:20:13.706Z,100221.63
2022-08-02T22:22:42.198Z,100218.56
2022-08-02T22:25:27.154Z,100223.97
2022-08-02T22:28:35.533Z,100226.13
2022-08-02T22:30:52.462Z,100217.88
2022-08-02T22:33:42.341Z,100218.22
2022-08-02T22:36:16.352Z,100222.47
2022-08-02T22:38:45.815Z,100227.78
2022-08-02T22:41:16.519Z,100231.34
2022-08-02T22:43:44.761Z,100223.84
2022-08-02T22:46:15.404Z,100227.88
2022-08-02T22:48:45.294Z,100231.00
2022-08-02T22:51:14.551Z,100235.78
2022-08-02T22:53:43.520Z,100232.41
2022-08-02T22:56:12.582Z,100237.59
2022-08-02T22:58:41.050Z,100154.38
2022-08-02T22:58:41.286Z,100156.44
2022-08-02T22:58:50.219Z,100160.97
2022-08-02T22:58:55.697Z,100209.38
2022-08-02T22:58:56.965Z,100205.59
2022-08-02T22:59:10.425Z,100237.59
2022-08-02T22:59:12.093Z,100209.00
2022-08-02T22:59:12.330Z,100206.53
2022-08-02T23:01:30.502Z,100247.28
2022-08-02T23:03:58.616Z,100236.66
2022-08-02T23:06:26.730Z,100243.13
2022-08-02T23:08:55.328Z,100238.13
2022-08-02T23:11:24.304Z,100236.91
2022-08-02T23:13:54.149Z,100242.41
2022-08-02T23:16:39.881Z,100238.06
2022-08-02T23:19:25.846Z,100239.44
2022-08-02T23:22:01.348Z,100238.72
2022-08-02T23:24:33.370Z,100238.16
2022-08-02T23:27:02.145Z,100232.84
2022-08-02T23:29:32.089Z,100232.84
2022-08-02T23:32:00.731Z,100227.75
2022-08-02T23:34:29.284Z,100234.13
2022-08-02T23:36:57.562Z,100226.50
2022-08-02T23:39:26.240Z,100234.56
2022-08-02T23:41:55.610Z,100233.81
2022-08-02T23:44:24.436Z,100222.56
2022-08-02T23:46:54.669Z,100226.72
2022-08-02T23:49:23.563Z,100228.09
2022-08-02T23:51:52.701Z,100233.28
2022-08-02T23:54:21.405Z,100230.72
2022-08-02T23:56:49.687Z,100230.72
2022-08-02T23:59:17.858Z,100235.84
